EYKA/KUN METAR and TAF weather

Enter ICAO airport designator
Station Type Date Time Source
EYKA METAR 2018/01/21 12:20 UTC NOAA

EYKA 211220Z VRB02KT 9999 OVC013 M02/M06 Q1013 R08/290095


Station Type Date Time Source
EYKA Decoded METAR 2018/01/21 12:20 UTC NOAA

Kaunas, Lithuania (EYKA) 54-54N 023-55-12E
Jan 21, 2018 - 07:20 AM EST / 2018.01.21 1220 UTC
Wind: Variable at 2 MPH (2 KT):0
Visibility: greater than 7 mile(s):0
Sky conditions: overcast
Temperature: 28 F (-2 C)
Dew Point: 21 F (-6 C)
Relative Humidity: 74%
Pressure (altimeter): 29.91 in. Hg (1013 hPa)
ob: EYKA 211220Z VRB02KT 9999 OVC013 M02/M06 Q1013 R08/290095
cycle: 12

Station Type Date Time Source
EYKA TAF 2018/01/21 12:12 UTC NOAA

TAF TAF EYKA 211105Z 2112/2212 VRB02KT 5000 BR OVC015
TEMPO 2112/2115 3000 SCT005 BKN010
TEMPO 2115/2121 1500 BKN005
BECMG 2121/2122 3000 SCT005
TEMPO 2122/2204 0500 FZFG VV002
BECMG 2206/2208 5000 BKN005


Example: see airport list